createdAt,value
2023-04-05T00:01:38.421Z,2.46
2023-04-05T00:04:05.623Z,2.51
2023-04-05T00:06:32.374Z,2.43
2023-04-05T00:09:00.573Z,2.45
2023-04-05T00:11:29.795Z,2.37
2023-04-05T00:13:58.498Z,1.97
2023-04-05T00:16:25.246Z,2.09
2023-04-05T00:18:51.997Z,2.13
2023-04-05T00:21:22.950Z,2.02
2023-04-05T00:23:55.115Z,1.97
2023-04-05T00:26:22.028Z,1.83
2023-04-05T00:28:49.538Z,1.93
2023-04-05T00:31:16.712Z,1.92
2023-04-05T00:33:43.596Z,1.95
2023-04-05T00:36:20.770Z,1.89
2023-04-05T00:38:49.461Z,1.90
2023-04-05T00:41:16.407Z,1.88
2023-04-05T00:43:43.043Z,1.76
2023-04-05T00:46:10.124Z,1.88
2023-04-05T00:48:38.583Z,1.82
2023-04-05T00:53:41.184Z,1.81
2023-04-05T00:56:08.571Z,1.62
2023-04-05T00:58:35.159Z,1.47
2023-04-05T01:01:02.034Z,1.80
2023-04-05T01:03:33.067Z,1.76
2023-04-05T01:06:50.546Z,1.74
2023-04-05T01:09:26.609Z,1.72
2023-04-05T01:11:57.285Z,1.60
2023-04-05T01:14:24.062Z,1.64
2023-04-05T01:16:51.528Z,1.60
2023-04-05T01:19:18.571Z,1.61
2023-04-05T01:21:54.259Z,1.66
2023-04-05T01:24:52.982Z,1.62
2023-04-05T01:27:37.263Z,1.52
2023-04-05T01:30:10.867Z,1.53
2023-04-05T01:32:54.229Z,1.54
2023-04-05T01:35:51.145Z,1.42
2023-04-05T01:38:25.359Z,1.58
2023-04-05T01:40:53.549Z,1.30
2023-04-05T01:43:20.361Z,1.50
2023-04-05T01:45:47.428Z,1.20
2023-04-05T01:48:14.989Z,1.28
2023-04-05T01:50:41.835Z,1.41
2023-04-05T01:53:09.359Z,1.40
2023-04-05T01:55:36.210Z,1.37
2023-04-05T01:58:02.841Z,1.05
2023-04-05T02:00:29.492Z,1.38
2023-04-05T02:02:56.208Z,1.27
2023-04-05T02:05:22.836Z,0.95
2023-04-05T02:07:49.465Z,1.22
2023-04-05T02:10:16.336Z,1.06
2023-04-05T02:12:43.118Z,1.16
2023-04-05T02:15:10.608Z,1.14
2023-04-05T02:17:40.125Z,1.08
2023-04-05T02:20:08.817Z,1.12
2023-04-05T02:22:35.418Z,1.14
2023-04-05T02:25:03.643Z,0.98
2023-04-05T02:27:30.536Z,0.75
2023-04-05T02:29:57.558Z,0.99
2023-04-05T02:32:25.265Z,1.00
2023-04-05T02:34:53.895Z,1.02
2023-04-05T02:37:20.731Z,1.02
2023-04-05T02:39:48.018Z,1.10
2023-04-05T02:42:14.654Z,1.11
2023-04-05T02:44:41.429Z,1.10
2023-04-05T02:47:08.076Z,1.11
2023-04-05T02:49:34.758Z,1.07
2023-04-05T02:52:01.390Z,1.02
2023-04-05T02:54:27.966Z,1.01
2023-04-05T02:56:54.965Z,0.96
2023-04-05T02:59:21.664Z,0.99
2023-04-05T03:01:51.294Z,1.00
2023-04-05T03:04:17.919Z,1.01
2023-04-05T03:06:46.541Z,1.01
2023-04-05T03:09:14.567Z,0.77
2023-04-05T03:11:41.138Z,1.01
2023-04-05T03:14:07.907Z,0.95
2023-04-05T03:16:34.677Z,0.94
2023-04-05T03:19:02.509Z,0.89
2023-04-05T03:21:30.170Z,0.88
2023-04-05T03:23:56.801Z,0.72
2023-04-05T03:26:24.647Z,0.95
2023-04-05T03:28:51.397Z,0.65
2023-04-05T03:31:20.542Z,0.92
2023-04-05T03:33:47.376Z,0.88
2023-04-05T03:36:16.871Z,0.81
2023-04-05T03:38:45.946Z,0.88
2023-04-05T03:41:12.677Z,0.94
2023-04-05T03:43:39.307Z,0.97
2023-04-05T03:46:05.952Z,1.03
2023-04-05T03:48:32.581Z,1.03
2023-04-05T03:50:59.214Z,0.89
2023-04-05T03:53:26.826Z,0.86
2023-04-05T03:55:54.493Z,0.83
2023-04-05T03:58:21.396Z,0.80
2023-04-05T04:00:48.924Z,0.79
2023-04-05T04:03:15.655Z,0.83
2023-04-05T04:05:42.853Z,0.41
2023-04-05T04:08:10.043Z,0.48
2023-04-05T04:10:36.853Z,0.83
2023-04-05T04:13:03.442Z,0.81
2023-04-05T04:15:30.159Z,0.76
2023-04-05T04:17:56.980Z,0.68
2023-04-05T04:20:23.659Z,0.74
2023-04-05T04:22:50.280Z,0.42
2023-04-05T04:25:19.020Z,0.72
2023-04-05T04:27:46.814Z,0.64
2023-04-05T04:30:15.934Z,0.67
2023-04-05T04:32:53.040Z,0.73
2023-04-05T04:35:25.187Z,0.76
2023-04-05T04:38:05.393Z,0.74
2023-04-05T04:40:40.702Z,0.63
2023-04-05T04:43:11.254Z,0.48
2023-04-05T04:45:38.280Z,0.92
2023-04-05T04:48:05.346Z,0.86
2023-04-05T04:50:32.354Z,0.85
2023-04-05T04:53:00.276Z,0.92
2023-04-05T04:55:27.729Z,0.65
2023-04-05T04:57:55.831Z,0.71
2023-04-05T05:00:24.157Z,1.04
2023-04-05T05:02:52.758Z,1.16
2023-04-05T05:05:23.468Z,1.28
2023-04-05T05:07:50.819Z,1.14
2023-04-05T05:10:17.682Z,1.48
2023-04-05T05:12:44.773Z,1.52
2023-04-05T05:15:12.516Z,1.51
2023-04-05T05:17:39.832Z,1.44
2023-04-05T05:20:11.350Z,1.74
2023-04-05T05:22:38.842Z,1.46
2023-04-05T05:25:07.051Z,1.76
2023-04-05T05:27:36.532Z,1.61
2023-04-05T05:30:04.483Z,2.03
2023-04-05T05:32:31.134Z,2.20
2023-04-05T05:34:57.770Z,2.26
2023-04-05T05:37:32.168Z,2.36
2023-04-05T05:39:59.643Z,2.55
2023-04-05T05:42:27.562Z,2.56
2023-04-05T05:44:54.280Z,2.53
2023-04-05T05:47:21.276Z,2.30
2023-04-05T05:49:49.894Z,2.57
2023-04-05T05:52:16.820Z,2.53
2023-04-05T05:54:43.459Z,2.59
2023-04-05T05:57:10.058Z,2.65
2023-04-05T05:59:36.821Z,2.70
2023-04-05T06:02:03.423Z,2.79
2023-04-05T06:04:30.104Z,2.86
2023-04-05T06:06:57.918Z,2.48
2023-04-05T06:09:24.727Z,2.58
2023-04-05T06:11:56.752Z,3.37
2023-04-05T06:14:24.775Z,3.43
2023-04-05T06:16:51.433Z,3.46
2023-04-05T06:19:18.109Z,3.60
2023-04-05T06:21:44.746Z,3.43
2023-04-05T06:24:11.427Z,3.47
2023-04-05T06:26:38.027Z,3.70
2023-04-05T06:29:04.960Z,3.51
2023-04-05T06:31:33.494Z,3.91
2023-04-05T06:34:00.767Z,3.78
2023-04-05T06:36:27.845Z,4.06
2023-04-05T06:38:54.797Z,3.55
2023-04-05T06:41:21.526Z,3.74
2023-04-05T06:43:48.159Z,3.94
2023-04-05T06:46:14.851Z,3.82
2023-04-05T06:48:42.428Z,4.37
2023-04-05T06:51:09.128Z,4.50
2023-04-05T06:53:35.737Z,4.68
2023-04-05T06:56:03.004Z,4.45
2023-04-05T06:58:29.627Z,4.85
2023-04-05T07:00:56.484Z,4.82
2023-04-05T07:03:23.303Z,4.95
2023-04-05T07:05:54.459Z,4.68
2023-04-05T07:08:21.464Z,4.98
2023-04-05T07:10:49.302Z,5.04
2023-04-05T07:13:17.260Z,4.72
2023-04-05T07:15:45.150Z,5.04
2023-04-05T07:18:12.914Z,5.22
2023-04-05T07:20:39.979Z,5.07
2023-04-05T07:23:07.404Z,5.16
2023-04-05T07:25:34.005Z,5.02
2023-04-05T07:28:00.688Z,5.47
2023-04-05T07:30:28.018Z,5.49
2023-04-05T07:32:55.398Z,5.46
2023-04-05T07:35:22.179Z,5.40
2023-04-05T07:37:48.783Z,5.15
2023-04-05T07:40:15.912Z,5.14
2023-04-05T07:42:42.534Z,5.50
2023-04-05T07:45:09.496Z,5.25
2023-04-05T07:47:36.399Z,5.46
2023-04-05T07:50:03.793Z,5.54
2023-04-05T07:52:30.602Z,5.37
2023-04-05T07:54:57.256Z,5.63
2023-04-05T07:57:24.004Z,5.93
2023-04-05T07:59:52.743Z,6.19
2023-04-05T08:02:19.442Z,6.16
2023-04-05T08:04:46.365Z,6.10
2023-04-05T08:07:13.112Z,6.32
2023-04-05T08:09:39.850Z,6.17
2023-04-05T08:12:06.811Z,6.61
2023-04-05T08:14:33.621Z,5.97
2023-04-05T08:17:00.386Z,6.62
2023-04-05T08:19:27.166Z,6.51
2023-04-05T08:21:53.854Z,6.88
2023-04-05T08:24:21.153Z,7.02
2023-04-05T08:26:47.813Z,6.94
2023-04-05T08:29:14.422Z,6.44
2023-04-05T08:31:41.044Z,7.29
2023-04-05T08:34:08.601Z,7.39
2023-04-05T08:36:35.246Z,7.44
2023-04-05T08:39:01.889Z,7.45
2023-04-05T08:41:37.006Z,7.96
2023-04-05T08:44:05.807Z,7.94
2023-04-05T08:46:34.681Z,8.13
2023-04-05T08:49:07.012Z,8.02
2023-04-05T08:51:36.731Z,7.72
2023-04-05T08:54:05.091Z,8.12
2023-04-05T08:56:33.478Z,8.27
2023-04-05T08:59:05.455Z,8.23
2023-04-05T09:01:33.591Z,8.62
2023-04-05T09:04:05.545Z,8.59
2023-04-05T09:06:33.624Z,8.81
2023-04-05T09:09:00.704Z,8.89
2023-04-05T09:11:27.759Z,8.85
2023-04-05T09:13:54.662Z,9.04
2023-04-05T09:16:21.530Z,9.05
2023-04-05T09:18:49.325Z,9.14
2023-04-05T09:21:17.812Z,9.38
2023-04-05T09:23:54.326Z,9.05
2023-04-05T09:26:22.523Z,9.54
2023-04-05T09:28:49.344Z,9.47
2023-04-05T09:31:38.004Z,9.76
2023-04-05T09:34:05.986Z,9.75
2023-04-05T09:36:36.093Z,9.95
2023-04-05T09:39:08.076Z,9.67
2023-04-05T09:41:35.989Z,9.96
2023-04-05T09:44:02.974Z,10.19
2023-04-05T09:46:34.591Z,10.35
2023-04-05T09:49:02.089Z,10.17
2023-04-05T09:51:36.434Z,10.13
2023-04-05T09:54:07.970Z,10.67
2023-04-05T09:56:37.762Z,10.23
2023-04-05T09:59:11.059Z,10.74
2023-04-05T10:01:41.319Z,10.90
2023-04-05T10:04:08.938Z,10.99
2023-04-05T10:06:38.449Z,11.19
2023-04-05T10:09:07.265Z,10.89
2023-04-05T10:11:36.435Z,10.11
2023-04-05T10:14:06.259Z,11.27
2023-04-05T10:16:36.917Z,11.48
2023-04-05T10:19:13.621Z,11.76
2023-04-05T10:21:42.669Z,11.38
2023-04-05T10:24:33.974Z,11.72
2023-04-05T10:27:21.849Z,11.38
2023-04-05T10:30:03.220Z,11.93
2023-04-05T10:32:54.829Z,12.21
2023-04-05T10:35:59.119Z,11.83
2023-04-05T10:38:27.932Z,12.38
2023-04-05T10:40:58.111Z,11.79
2023-04-05T10:43:27.326Z,12.02
2023-04-05T10:45:55.836Z,12.42
2023-04-05T10:48:54.390Z,13.13
2023-04-05T10:51:24.633Z,13.45
2023-04-05T10:53:52.147Z,13.00
2023-04-05T10:56:20.970Z,12.90
2023-04-05T10:58:50.167Z,12.96
2023-04-05T11:01:18.633Z,12.60
2023-04-05T11:03:48.533Z,12.54
2023-04-05T11:06:22.335Z,12.32
2023-04-05T11:08:51.449Z,11.88
2023-04-05T11:11:19.508Z,12.02
2023-04-05T11:13:54.152Z,12.01
2023-04-05T11:16:21.991Z,11.96
2023-04-05T11:18:52.609Z,12.05
2023-04-05T11:21:26.357Z,11.27
2023-04-05T11:24:12.052Z,11.33
2023-04-05T11:26:41.417Z,11.41
2023-04-05T11:29:08.645Z,11.58
2023-04-05T11:31:35.523Z,11.71
2023-04-05T11:34:12.075Z,11.81
2023-04-05T11:36:48.876Z,11.87
2023-04-05T11:39:18.198Z,12.49
2023-04-05T11:41:53.413Z,12.77
2023-04-05T11:44:20.213Z,12.83
2023-04-05T11:46:47.129Z,13.19
2023-04-05T11:49:14.748Z,15.05
2023-04-05T11:51:43.043Z,15.99
2023-04-05T11:54:12.566Z,15.87
2023-04-05T11:56:39.407Z,14.80
2023-04-05T11:59:06.397Z,14.68
2023-04-05T12:01:33.031Z,15.62
2023-04-05T12:03:59.671Z,16.00
2023-04-05T12:06:26.789Z,16.22
2023-04-05T12:08:56.109Z,15.95
2023-04-05T12:11:31.367Z,14.93
2023-04-05T12:14:01.825Z,15.13
2023-04-05T12:16:29.629Z,15.11
2023-04-05T12:19:01.016Z,15.38
2023-04-05T12:21:28.437Z,14.75
2023-04-05T12:23:55.430Z,13.75
2023-04-05T12:26:22.462Z,13.72
2023-04-05T12:29:00.548Z,13.52
2023-04-05T12:31:44.558Z,13.68
2023-04-05T12:34:13.549Z,13.20
2023-04-05T12:36:45.109Z,13.00
2023-04-05T12:39:12.029Z,12.49
2023-04-05T12:41:39.221Z,12.58
2023-04-05T12:44:14.852Z,12.46
2023-04-05T12:46:43.100Z,12.61
2023-04-05T12:49:17.750Z,13.10
2023-04-05T12:51:48.548Z,13.30
2023-04-05T12:54:21.764Z,13.28
2023-04-05T12:56:53.190Z,13.54
2023-04-05T12:59:20.766Z,14.07
2023-04-05T13:01:47.673Z,15.75
2023-04-05T13:04:16.439Z,16.56
2023-04-05T13:06:45.092Z,17.52
2023-04-05T13:09:11.605Z,18.00
2023-04-05T13:11:38.288Z,17.18
2023-04-05T13:14:05.083Z,16.31
2023-04-05T13:16:31.998Z,16.52
2023-04-05T13:18:58.909Z,16.04
2023-04-05T13:21:26.070Z,16.34
2023-04-05T13:23:52.644Z,16.08
2023-04-05T13:26:19.217Z,16.52
2023-04-05T13:28:46.223Z,16.03
2023-04-05T13:31:15.178Z,16.07
2023-04-05T13:33:42.917Z,15.66
2023-04-05T13:36:11.141Z,16.25
2023-04-05T13:38:38.235Z,17.57
2023-04-05T13:41:05.538Z,18.03
2023-04-05T13:43:32.152Z,18.56
2023-04-05T13:45:58.816Z,18.24
2023-04-05T13:48:25.463Z,17.75
2023-04-05T13:50:52.112Z,17.00
2023-04-05T13:53:18.743Z,16.12
2023-04-05T13:55:45.327Z,15.40
2023-04-05T13:58:14.530Z,15.00
2023-04-05T14:00:41.936Z,14.44
2023-04-05T14:03:09.353Z,13.71
2023-04-05T14:05:36.413Z,12.73
2023-04-05T14:08:03.240Z,12.68
2023-04-05T14:10:31.789Z,11.86
2023-04-05T14:12:58.473Z,12.36
2023-04-05T14:15:25.259Z,12.47
2023-04-05T14:17:52.551Z,12.47
2023-04-05T14:20:25.446Z,12.00
2023-04-05T14:22:52.091Z,11.80
2023-04-05T14:25:18.740Z,11.94
2023-04-05T14:27:45.508Z,12.11
2023-04-05T14:30:12.893Z,11.85
2023-04-05T14:32:39.996Z,12.15
2023-04-05T14:35:09.270Z,12.32
2023-04-05T14:37:36.261Z,12.40
2023-04-05T14:40:02.939Z,12.04
2023-04-05T14:42:41.091Z,12.04
2023-04-05T14:45:15.028Z,12.65
2023-04-05T14:47:41.679Z,12.74
2023-04-05T14:50:08.854Z,12.83
2023-04-05T14:52:35.680Z,12.81
2023-04-05T14:55:02.278Z,13.21
2023-04-05T14:57:28.953Z,14.67
2023-04-05T14:59:55.784Z,15.85
2023-04-05T15:02:22.652Z,15.56
2023-04-05T15:04:49.400Z,15.03
2023-04-05T15:07:16.307Z,15.14
2023-04-05T15:09:43.202Z,14.38
2023-04-05T15:12:09.833Z,13.66
2023-04-05T15:14:36.685Z,13.80
2023-04-05T15:17:03.296Z,13.50
2023-04-05T15:19:30.766Z,13.47
2023-04-05T15:21:57.408Z,13.17
2023-04-05T15:24:24.104Z,12.69
2023-04-05T15:26:50.808Z,12.39
2023-04-05T15:29:17.467Z,12.34
2023-04-05T15:31:44.213Z,11.78
2023-04-05T15:34:11.142Z,12.07
2023-04-05T15:36:37.870Z,12.14
2023-04-05T15:39:05.416Z,12.16
2023-04-05T15:41:34.445Z,12.26
2023-04-05T15:44:01.521Z,11.82
2023-04-05T15:46:29.359Z,12.09
2023-04-05T15:48:56.358Z,12.05
2023-04-05T15:51:23.119Z,11.41
2023-04-05T15:53:49.869Z,12.07
2023-04-05T15:56:16.547Z,11.71
2023-04-05T15:58:43.260Z,11.65
2023-04-05T16:01:10.146Z,11.56
2023-04-05T16:03:36.855Z,11.53
2023-04-05T16:06:03.634Z,11.51
2023-04-05T16:08:30.401Z,11.28
2023-04-05T16:10:57.419Z,11.38
2023-04-05T16:13:26.019Z,11.26
2023-04-05T16:15:52.776Z,11.23
2023-04-05T16:18:21.473Z,11.23
2023-04-05T16:20:48.588Z,10.72
2023-04-05T16:23:15.745Z,10.84
2023-04-05T16:25:42.555Z,10.88
2023-04-05T16:28:09.496Z,11.00
2023-04-05T16:30:36.913Z,10.99
2023-04-05T16:33:03.668Z,11.00
2023-04-05T16:35:31.465Z,11.14
2023-04-05T16:37:58.722Z,10.82
2023-04-05T16:40:25.525Z,10.95
2023-04-05T16:42:52.317Z,10.90
2023-04-05T16:45:18.996Z,10.79
2023-04-05T16:47:45.678Z,10.89
2023-04-05T16:50:12.532Z,10.86
2023-04-05T16:52:39.254Z,10.86
2023-04-05T16:55:06.659Z,10.91
2023-04-05T16:57:33.451Z,10.63
2023-04-05T17:00:00.051Z,10.88
2023-04-05T17:02:27.178Z,10.81
2023-04-05T17:04:54.261Z,10.79
2023-04-05T17:07:21.433Z,10.52
2023-04-05T17:09:48.267Z,10.72
2023-04-05T17:12:14.926Z,10.71
2023-04-05T17:14:41.748Z,10.59
2023-04-05T17:17:08.413Z,10.58
2023-04-05T17:19:35.017Z,10.34
2023-04-05T17:22:01.748Z,10.52
2023-04-05T17:24:37.443Z,10.31
2023-04-05T17:27:04.704Z,10.25
2023-04-05T17:29:31.474Z,9.95
2023-04-05T17:31:58.400Z,10.25
2023-04-05T17:34:25.117Z,9.28
2023-04-05T17:36:52.952Z,10.22
2023-04-05T17:39:19.713Z,10.14
2023-04-05T17:41:46.623Z,10.06
2023-04-05T17:44:15.907Z,10.03
2023-04-05T17:46:51.056Z,9.98
2023-04-05T17:49:21.032Z,9.78
2023-04-05T17:51:48.545Z,9.62
2023-04-05T17:54:15.679Z,9.69
2023-04-05T17:56:42.401Z,9.64
2023-04-05T17:59:09.461Z,9.71
2023-04-05T18:01:37.575Z,9.62
2023-04-05T18:04:05.854Z,9.17
2023-04-05T18:06:32.918Z,9.44
2023-04-05T18:08:59.904Z,8.66
2023-04-05T18:11:26.867Z,9.27
2023-04-05T18:13:53.665Z,8.75
2023-04-05T18:16:20.846Z,9.10
2023-04-05T18:18:47.593Z,9.00
2023-04-05T18:21:14.218Z,8.81
2023-04-05T18:23:40.880Z,8.68
2023-04-05T18:26:08.180Z,8.95
2023-04-05T18:28:35.135Z,8.80
2023-04-05T18:31:02.139Z,8.56
2023-04-05T18:33:28.783Z,8.63
2023-04-05T18:35:55.586Z,8.54
2023-04-05T18:38:22.226Z,8.83
2023-04-05T18:40:48.923Z,8.57
2023-04-05T18:43:15.633Z,8.81
2023-04-05T18:45:42.297Z,8.86
2023-04-05T18:48:09.106Z,8.84
2023-04-05T18:50:36.241Z,8.69
2023-04-05T18:53:02.947Z,8.46
2023-04-05T18:55:29.558Z,8.46
2023-04-05T18:57:56.363Z,8.62
2023-04-05T19:00:23.147Z,8.53
2023-04-05T19:02:49.910Z,8.53
2023-04-05T19:05:16.741Z,8.49
2023-04-05T19:07:43.382Z,8.48
2023-04-05T19:10:10.548Z,8.30
2023-04-05T19:12:37.448Z,8.21
2023-04-05T19:15:04.349Z,8.06
2023-04-05T19:17:31.249Z,7.88
2023-04-05T19:19:57.877Z,7.85
2023-04-05T19:22:24.568Z,7.87
2023-04-05T19:24:51.383Z,7.86
2023-04-05T19:27:17.988Z,7.36
2023-04-05T19:29:44.702Z,7.68
2023-04-05T19:32:11.489Z,7.64
2023-04-05T19:34:38.947Z,7.48
2023-04-05T19:37:06.371Z,7.36
2023-04-05T19:39:33.901Z,7.43
2023-04-05T19:42:00.627Z,7.47
2023-04-05T19:44:42.261Z,7.30
2023-04-05T19:47:11.069Z,7.32
2023-04-05T19:49:42.546Z,7.12
2023-04-05T19:52:13.121Z,6.86
2023-04-05T19:54:42.901Z,6.79
2023-04-05T19:57:10.095Z,6.96
2023-04-05T19:59:37.777Z,6.71
2023-04-05T20:02:19.160Z,6.19
2023-04-05T20:04:45.795Z,6.74
2023-04-05T20:07:13.747Z,6.61
2023-04-05T20:09:41.210Z,6.18
2023-04-05T20:12:09.668Z,6.46
2023-04-05T20:14:49.401Z,6.40
2023-04-05T20:17:18.802Z,6.48
2023-04-05T20:19:57.818Z,6.36
2023-04-05T20:22:26.360Z,6.22
2023-04-05T20:24:52.990Z,6.26
2023-04-05T20:27:19.666Z,6.20
2023-04-05T20:29:46.441Z,6.13
2023-04-05T20:32:14.349Z,6.02
2023-04-05T20:34:43.943Z,5.72
2023-04-05T20:37:12.108Z,5.49
2023-04-05T20:39:38.784Z,5.96
2023-04-05T20:42:05.692Z,5.88
2023-04-05T20:44:32.358Z,5.62
2023-04-05T20:46:59.134Z,5.77
2023-04-05T20:49:25.834Z,5.46
2023-04-05T20:51:54.935Z,5.83
2023-04-05T20:54:22.604Z,5.56
2023-04-05T20:56:49.513Z,5.54
2023-04-05T20:59:16.791Z,5.52
2023-04-05T21:01:43.579Z,5.69
2023-04-05T21:04:10.665Z,5.10
2023-04-05T21:06:37.791Z,5.70
2023-04-05T21:09:04.836Z,5.65
2023-04-05T21:11:31.586Z,5.64
2023-04-05T21:13:58.385Z,5.62
2023-04-05T21:16:25.246Z,5.65
2023-04-05T21:18:51.989Z,5.59
2023-04-05T21:21:18.632Z,5.82
2023-04-05T21:23:45.271Z,5.76
2023-04-05T21:26:11.958Z,5.54
2023-04-05T21:28:38.683Z,5.62
2023-04-05T21:31:05.591Z,5.66
2023-04-05T21:33:32.297Z,5.64
2023-04-05T21:35:59.108Z,5.54
2023-04-05T21:38:26.142Z,5.61
2023-04-05T21:40:52.759Z,5.55
2023-04-05T21:43:19.429Z,5.61
2023-04-05T21:45:46.793Z,5.45
2023-04-05T21:48:13.515Z,5.60
2023-04-05T21:50:40.167Z,5.56
2023-04-05T21:53:07.492Z,5.51
2023-04-05T21:55:34.166Z,5.16
2023-04-05T21:58:01.183Z,5.10
2023-04-05T22:00:28.346Z,5.47
2023-04-05T22:02:55.159Z,5.32
2023-04-05T22:05:30.145Z,5.36
2023-04-05T22:08:01.654Z,5.38
2023-04-05T22:10:28.734Z,5.29
2023-04-05T22:12:55.671Z,4.93
2023-04-05T22:15:22.413Z,5.01
2023-04-05T22:17:49.111Z,5.16
2023-04-05T22:20:16.135Z,4.41
2023-04-05T22:22:42.818Z,5.02
2023-04-05T22:25:09.970Z,4.97
2023-04-05T22:27:36.730Z,4.86
2023-04-05T22:30:04.692Z,4.86
2023-04-05T22:32:31.536Z,4.54
2023-04-05T22:34:58.291Z,4.90
2023-04-05T22:37:25.027Z,4.87
2023-04-05T22:39:51.680Z,4.81
2023-04-05T22:42:18.296Z,4.34
2023-04-05T22:44:47.895Z,4.67
2023-04-05T22:47:14.539Z,4.25
2023-04-05T22:49:41.431Z,4.41
2023-04-05T22:52:08.034Z,3.96
2023-04-05T22:54:34.748Z,4.27
2023-04-05T22:57:01.675Z,4.28
2023-04-05T22:59:28.355Z,4.10
2023-04-05T23:01:55.147Z,4.18
2023-04-05T23:04:22.070Z,4.15
2023-04-05T23:06:48.930Z,3.99
2023-04-05T23:09:15.568Z,3.62
2023-04-05T23:11:43.037Z,3.80
2023-04-05T23:14:12.174Z,3.94
2023-04-05T23:16:39.677Z,3.84
2023-04-05T23:19:06.540Z,3.81
2023-04-05T23:21:33.986Z,3.74
2023-04-05T23:24:02.383Z,3.67
2023-04-05T23:26:29.143Z,3.65
2023-04-05T23:28:56.112Z,3.29
2023-04-05T23:31:22.880Z,3.59
2023-04-05T23:33:49.548Z,3.67
2023-04-05T23:36:16.440Z,3.29
2023-04-05T23:38:43.200Z,3.27
2023-04-05T23:41:09.808Z,3.48
2023-04-05T23:43:36.877Z,3.42
2023-04-05T23:46:03.605Z,3.46
2023-04-05T23:48:30.281Z,2.97
2023-04-05T23:50:56.958Z,3.36
2023-04-05T23:53:23.798Z,3.41
2023-04-05T23:55:53.488Z,3.25
2023-04-05T23:58:20.216Z,3.38
